This is the latest recevied weather packets stored in our database for station/object K4YY. If no packets are shown the sender has not sent any weather packets the latest 10 day(s).
| Time | Temp. | Humidity | Pressure | Rain* | Wind** | Luminosity | Snow |
|---|---|---|---|---|---|---|---|
| 1777091118 | 22.22° C | 70% | 1011.1 hPa | 0 mm | - | 0 W/m² | - |
| 1777088120 | 21.11° C | 69% | 1011.1 hPa | 0 mm | - | 0 W/m² | - |
| 1777085120 | 21.67° C | 68% | 1011.3 hPa | 0 mm | - | 0 W/m² | - |
| 1777073718 | 25.56° C | 56% | 1010.2 hPa | 0 mm | - | 22 W/m² | - |
| 1777072518 | 26.67° C | 54% | 1010.2 hPa | 0 mm | - | 91 W/m² | - |
| 1777070738 | 26.67° C | 52% | 1009.9 hPa | 0 mm | - | 202 W/m² | - |
| 1777070118 | 27.22° C | 53% | 1009.9 hPa | 0 mm | - | 239 W/m² | - |
| 1777069518 | 26.67° C | 55% | 1009.9 hPa | 0 mm | - | 309 W/m² | - |
| 1777067138 | 26.67° C | 54% | 1010.1 hPa | 0 mm | - | 124 W/m² | - |
| 1777066518 | 27.22° C | 53% | 1010.1 hPa | 0 mm | - | 127 W/m² | - |
| 1777065318 | 27.22° C | 54% | 1010 hPa | 0 mm | - | 286 W/m² | - |
| 1777063518 | 28.33° C | 49% | 1010.2 hPa | 0 mm | - | 196 W/m² | - |
| 1777059938 | 28.33° C | 46% | 1010.8 hPa | 0 mm | - | 274 W/m² | - |
| 1777058118 | 27.78° C | 45% | 1011.1 hPa | 0 mm | - | 248 W/m² | - |
| 1777057518 | 27.22° C | 48% | 1011.2 hPa | 0 mm | - | 673 W/m² | - |
| 1777056918 | 27.22° C | 48% | 1011.3 hPa | 0 mm | - | 959 W/m² | - |
| 1777056318 | 27.22° C | 47% | 1011.4 hPa | 0 mm | - | 255 W/m² | - |
| 1777050918 | 26.11° C | 57% | 1012.5 hPa | 0 mm | - | 184 W/m² | - |
| 1777048538 | 25.56° C | 60% | 1013.1 hPa | 0 mm | - | 595 W/m² | - |
| 1777042518 | 23.33° C | 66% | 1014.2 hPa | 0 mm | - | 385 W/m² | - |
| 1777041318 | 23.33° C | 68% | 1014.3 hPa | 0 mm | - | 642 W/m² | - |
| 1777038918 | 22.22° C | 71% | 1014.6 hPa | 0 mm | - | 79 W/m² | - |
| 1777037718 | 21.67° C | 73% | 1014.6 hPa | 0 mm | - | 89 W/m² | - |
| 1777035318 | 20.56° C | 78% | 1014.6 hPa | 0 mm | - | 79 W/m² | - |
| 1777032338 | 18.33° C | 88% | 1014.5 hPa | 0 mm | - | 35 W/m² | - |
* Rain latest hour (hover to see other rain measurements)
** Current wind speed in m/s (hover to see current wind gust speed)